Nyona Lake, Indiana
Current Conditions -  °F | °C
As of 11:35 PM on Wednesday 26 Nov 2014 (Local Time) from KRCR Reporting Station
Overcast Overcast  
Wind Chill: 30°   Ceiling: 2200
Heat Index: 30°   Visibility: 10mi
Dew Point: 23°   Wind: 3mph
Humidity: 75%   Direction: 10°N
Pressure: 30.13"   Gusts: NA
Location:  40.9677°N, 86.1226°W
Report Text: KRCR 270435Z AUTO 01003KT 10SM OVC022 M01/M05 A3013 RMK AO2
Loading
Personal Weather Stations






























Interactive Weather Map New forecast layout! Learn more

10-Day Weather Forecast

Advertisements
Track Severe Weather on mobile